NCAR-RAP Real-Time Weather Data

Output produced by METARs form (08 May 2021  16:38 UTC)
found at http://weather.rap.ucar.edu/surface/
 
KIND 081554Z VRB03KT 10SM FEW045 FEW250 11/M01 A3015 RMK AO2 SLP210 T01061006
KIND 081454Z 00000KT 10SM FEW035 FEW250 10/01 A3015 RMK AO2 SLP213 T01000006 50007
KIND 081354Z 04004KT 10SM FEW200 08/01 A3016 RMK AO2 SLP214 T00830011
KIND 081254Z 04005KT 10SM FEW230 07/01 A3015 RMK AO2 SLP212 T00670006
KIND 081154Z 30003KT 10SM FEW230 04/00 A3013 RMK AO2 SLP205 70009 T00390000 10056 20022 53016
KIND 081054Z 36004KT 10SM FEW250 02/M01 A3011 RMK AO2 SLP198 T00221011
KIND 080954Z 36006KT 10SM CLR 03/M02 A3010 RMK AO2 SLP194 T00281017
KIND 080854Z 31004KT 10SM CLR 02/M01 A3008 RMK AO2 SLP190 T00221011 53010
KIND 080754Z 34006KT 10SM CLR 03/M01 A3006 RMK AO2 SLP182 T00281006
KIND 080654Z 32006KT 10SM CLR 03/M01 A3006 RMK AO2 SLP179 T00331006
KIND 080554Z 36008KT 10SM CLR 06/M01 A3005 RMK AO2 SLP177 T00561006 10139 20056 51006
KIND 080454Z 36009KT 10SM CLR 07/M01 A3005 RMK AO2 SLP176 T00671006 401780033
KIND 080354Z 35007KT 10SM CLR 07/00 A3005 RMK AO2 SLP175 T00720000
KIND 080254Z 36011KT 10SM CLR 09/00 A3004 RMK AO2 SLP172 T00890000 51034
KIND 080154Z 01014KT 10SM CLR 10/01 A3001 RMK AO2 PK WND 36027/0127 SLP163 T01000011
KIND 080054Z 36020G25KT 10SM FEW050 FEW075 FEW110 12/03 A2997 RMK AO2 PK WND 36029/0021 SLP150 T01170028
KIND 072354Z 34017G27KT 10SM FEW050 SCT075 SCT110 14/06 A2993 RMK AO2 PK WND 31027/2338 WSHFT 2336 RAE2259 TSE2259 SLP138 P0000 60009 T01390056 10178 20111 53004
KIND 072305Z 27003KT 10SM FEW050 SCT075 BKN110 14/09 A2991 RMK AO2 RAE2259 TSE2259 P0000 T01440089
KIND 072254Z 00000KT 10SM -TSRA FEW045CB SCT075 BKN090 14/08 A2991 RMK AO2 RAB15 TSB44 SLP130 OCNL LTGIC E TS E MOV SE P0000 T01390083
KIND 072250Z 22003KT 10SM -TSRA FEW045CB SCT075 BKN090 14/08 A2991 RMK AO2 RAB15 TSB44 OCNL LTGIC E TS E MOV SE P0000
KIND 072154Z 18007KT 10SM SCT050 SCT080 BKN100 13/07 A2992 RMK AO2 RAE35 TSE24 SLP134 P0003 T01330072
KIND 072130Z VRB05G19KT 10SM -RA SCT040 BKN055 BKN100 13/07 A2994 RMK AO2 TSE24 P0003 T01330067
KIND 072054Z 21013KT 6SM TSRA FEW025CB BKN050 BKN110 12/07 A2993 RMK AO2 PK WND 28039/2007 LTG DSNT S AND NW RAB1956 TSB42 SLP137 OCNL LTGIC W TS W MOV E P0006 60006 T01170072 56024
KIND 071954Z 24008KT 10SM FEW055 BKN075 BKN100 16/02 A2994 RMK AO2 LTG DSNT W SLP139 VCSH W-NW T01560022
KIND 071854Z 25013KT 10SM FEW055 SCT090 SCT120 17/03 A2997 RMK AO2 PK WND 26027/1813 RAB11E35 SLP148 P0000 T01720033
KIND 071754Z 26013KT 10SM BKN085 BKN120 16/02 A3000 RMK AO2 SLP160 VIRGA E T01560022 10172 20056 58012
KIND 071654Z 29007G17KT 10SM FEW050 SCT100 SCT130 16/02 A3003 RMK AO2 SLP169 T01560022
KIND 071554Z 29012G20KT 10SM FEW050 SCT110 SCT130 16/03 A3004 RMK AO2 SLP172 T01560033
KIND 071454Z 26009KT 10SM FEW095 13/04 A3004 RMK AO2 SLP172 T01280044 58002
KIND 071354Z 22005KT 10SM FEW085 11/04 A3005 RMK AO2 SLP179 T01060039
KIND 071254Z 21004KT 10SM FEW060 08/04 A3005 RMK AO2 SLP178 T00780044
KIND 071154Z 24004KT 9SM FEW060 06/04 A3004 RMK AO2 SLP176 70025 T00560039 10056 20033 53003
KIND 071054Z 24004KT 7SM BKN060 03/02 A3003 RMK AO2 SLP174 T00330022
KIND 070954Z 25004KT 7SM SCT070 BKN090 04/03 A3003 RMK AO2 SLP169 T00440033
KIND 070854Z 26006KT 7SM FEW090 04/03 A3003 RMK AO2 SLP171 T00390033 55006
KIND 070754Z 27003KT 8SM CLR 04/03 A3002 RMK AO2 SLP168 T00390028
KIND 070654Z 30004KT 9SM CLR 04/03 A3003 RMK AO2 SLP172 T00440033
KIND 070554Z 32006KT 10SM FEW080 05/03 A3005 RMK AO2 SLP178 60000 T00500033 10094 20050 58001
KIND 070354Z 33010KT 10SM SCT080 07/06 A3006 RMK AO2 SLP180 T00720056
KIND 070320Z 32010KT 10SM SCT017 SCT080 08/06 A3006 RMK AO2 T00780061
KIND 070304Z 32012KT 10SM BKN016 BKN060 08/07 A3006 RMK AO2 T00830067
KIND 070254Z 33012KT 10SM SCT018 BKN040 BKN060 08/07 A3006 RMK AO2 SLP178 60000 T00830067 53013
KIND 070232Z 32012KT 10SM FEW015 SCT028 BKN060 08/07 A3005 RMK AO2 T00830067
KIND 070154Z 31010KT 10SM SCT015 BKN028 BKN060 09/08 A3003 RMK AO2 SLP170 T00940078
KIND 070149Z 30011KT 10SM SCT015 BKN028 BKN060 09/08 A3003 RMK AO2
KIND 070054Z 29005KT 10SM FEW010 OVC050 09/08 A3002 RMK AO2 RAE2358 SLP166 P0000 T00890078
KIND 062354Z 00000KT 10SM -RA FEW030 BKN055 BKN250 09/08 A3000 RMK AO2 TSE2256 SLP162 P0009 60025 T00890078 10150 20083 50004
KIND 062317Z 06004KT 7SM -RA SCT030 OVC046 09/07 A3000 RMK AO2 TSE2256 P0006 T00890072
KIND 062302Z 35004KT 4SM VCTS RA BR SCT030 OVC046 08/07 A3001 RMK AO2 TSE2256 P0002 T00830072
KIND 062254Z 29006KT 4SM RA BR SCT030 OVC046 08/07 A3002 RMK AO2 PK WND 31040/2225 WSHFT 2224 RAB27 SLP167 P0016 T00830072
KIND 062240Z 30010KT 2SM R05L/6000VP6000FT +RA BR FEW034 OVC046 08/06 A3003 RMK AO2 PK WND 31040/2225 WSHFT 2224 RAB27 P0006 T00830061
KIND 062154Z COR 19008KT 10SM FEW055 BKN070 OVC120 14/07 A2999 RMK AO2 LTG DSNT W AND NW SLP156 OCNL LTGICCG W-NW CB DSNT W-NW MOV SE T01390067
KIND 062054Z 19010KT 10SM FEW055 BKN070 OVC090 14/07 A2999 RMK AO2 SLP157 60000 T01390067 58024
KIND 061954Z 22014KT 10SM FEW035 BKN055 OVC090 14/06 A3002 RMK AO2 RAE50 SLP165 P0000 T01440061
KIND 061854Z 23012KT 10SM -RA SCT045 BKN055 OVC070 14/05 A3004 RMK AO2 RAB14 SLP173 P0000 T01440050
KIND 061754Z 19007KT 10SM SCT048 BKN060 OVC100 14/06 A3006 RMK AO2 RAE52 SLP180 P0000 60000 T01390061 10144 20067 58020
KIND 061654Z 22016G21KT 10SM -RA BKN065 BKN085 OVC180 14/03 A3010 RMK AO2 RAB44 SLP192 P0000 T01390033